This is the latest recevied weather packets stored in our database for station/object IZ8GMP-13. If no packets are shown the sender has not sent any weather packets the latest 10 day(s).
| Time | Temp. | Humidity | Pressure | Rain* | Wind** | Luminosity | Snow |
|---|---|---|---|---|---|---|---|
| 1777379776 | 22.22° C | 55% | 1015.7 hPa | - | - | - | - |
| 1777378573 | 21.67° C | 55% | 1015.9 hPa | - | - | - | - |
| 1777377369 | 21.67° C | 57% | 1016 hPa | - | - | - | - |
| 1777376166 | 21.11° C | 59% | 1015.9 hPa | - | - | - | - |
| 1777374962 | 21.67° C | 55% | 1016.2 hPa | - | - | - | - |
| 1777373759 | 22.78° C | 51% | 1016.3 hPa | - | - | - | - |
| 1777372556 | 22.78° C | 48% | 1016.4 hPa | - | - | - | - |
| 1777371352 | 20.56° C | 56% | 1016.4 hPa | - | - | - | - |
| 1777370148 | 19.44° C | 66% | 1016.4 hPa | - | - | - | - |
| 1777368945 | 19.44° C | 66% | 1016.4 hPa | - | - | - | - |
| 1777367742 | 20° C | 64% | 1016.6 hPa | - | - | - | - |
| 1777366538 | 20° C | 62% | 1016.4 hPa | - | - | - | - |
| 1777365335 | 20.56° C | 57% | 1016.3 hPa | - | - | - | - |
| 1777364131 | 20.56° C | 55% | 1016.3 hPa | - | - | - | - |
| 1777362928 | 20.56° C | 58% | 1016.2 hPa | - | - | - | - |
| 1777361724 | 20° C | 58% | 1016.1 hPa | - | - | - | - |
| 1777360521 | 19.44° C | 55% | 1016.2 hPa | - | - | - | - |
| 1777359317 | 18.33° C | 56% | 1016.2 hPa | - | - | - | - |
| 1777358114 | 17.78° C | 62% | 1016.3 hPa | - | - | - | - |
| 1777356910 | 21.11° C | 54% | 1016.2 hPa | - | - | - | - |
| 1777355707 | 20° C | 48% | 1016.3 hPa | - | - | - | - |
| 1777354503 | 19.44° C | 58% | 1016.2 hPa | - | - | - | - |
| 1777353300 | 18.33° C | 60% | 1016 hPa | - | - | - | - |
| 1777352096 | 16.11° C | 67% | 1015.8 hPa | - | - | - | - |
| 1777348486 | 15.56° C | 69% | 1015.7 hPa | - | - | - | - |
* Rain since midnight (hover to see other rain measurements)
** Current wind speed in m/s (hover to see current wind gust speed)